createdAt,value
2022-10-10T00:04:15.542Z,7.70
2022-10-10T00:09:18.544Z,7.80
2022-10-10T00:14:23.108Z,7.60
2022-10-10T00:19:26.460Z,7.50
2022-10-10T00:24:29.518Z,7.50
2022-10-10T00:29:33.932Z,7.60
2022-10-10T00:34:36.973Z,7.50
2022-10-10T00:39:41.132Z,7.50
2022-10-10T00:45:06.966Z,7.70
2022-10-10T00:50:10.533Z,7.50
2022-10-10T00:55:14.717Z,7.40
2022-10-10T01:00:19.635Z,7.30
2022-10-10T01:05:23.048Z,7.20
2022-10-10T01:10:26.316Z,7.10
2022-10-10T01:15:43.874Z,7.00
2022-10-10T01:21:09.619Z,7.00
2022-10-10T01:26:34.686Z,6.90
2022-10-10T01:31:42.650Z,6.80
2022-10-10T01:36:52.466Z,6.70
2022-10-10T01:42:03.148Z,6.70
2022-10-10T01:47:10.184Z,6.60
2022-10-10T01:52:26.676Z,6.50
2022-10-10T01:57:39.615Z,6.50
2022-10-10T02:02:52.591Z,6.40
2022-10-10T02:07:58.601Z,6.40
2022-10-10T02:13:04.349Z,6.40
2022-10-10T02:18:11.672Z,6.40
2022-10-10T02:23:17.577Z,6.70
2022-10-10T02:28:24.102Z,7.10
2022-10-10T02:33:36.069Z,7.10
2022-10-10T02:38:41.795Z,7.20
2022-10-10T02:43:45.431Z,7.20
2022-10-10T02:48:49.893Z,7.30
2022-10-10T02:53:52.976Z,7.30
2022-10-10T02:58:56.021Z,7.30
2022-10-10T03:04:00.362Z,7.20
2022-10-10T03:09:04.613Z,7.20
2022-10-10T03:14:07.680Z,7.10
2022-10-10T03:19:12.070Z,6.90
2022-10-10T03:24:15.696Z,7.10
2022-10-10T03:29:18.798Z,7.00
2022-10-10T03:34:23.402Z,6.90
2022-10-10T03:39:26.518Z,6.90
2022-10-10T03:44:29.624Z,6.80
2022-10-10T03:49:34.333Z,6.80
2022-10-10T03:54:37.562Z,6.60
2022-10-10T03:59:41.017Z,6.50
2022-10-10T04:04:45.352Z,6.60
2022-10-10T04:09:48.428Z,6.50
2022-10-10T04:14:51.496Z,6.50
2022-10-10T04:19:57.639Z,6.50
2022-10-10T04:25:00.706Z,6.50
2022-10-10T04:30:04.497Z,6.30
2022-10-10T04:35:09.265Z,6.40
2022-10-10T04:40:12.477Z,6.20
2022-10-10T04:45:18.259Z,6.10
2022-10-10T04:50:24.071Z,5.80
2022-10-10T04:55:27.223Z,5.60
2022-10-10T05:00:30.629Z,5.60
2022-10-10T05:05:35.064Z,5.70
2022-10-10T05:10:39.206Z,5.60
2022-10-10T05:15:43.214Z,5.60
2022-10-10T05:20:47.853Z,5.60
2022-10-10T05:25:51.476Z,5.60
2022-10-10T05:30:54.796Z,5.60
2022-10-10T05:36:04.662Z,5.40
2022-10-10T05:41:08.699Z,5.20
2022-10-10T05:46:11.865Z,5.10
2022-10-10T05:51:16.495Z,4.90
2022-10-10T05:56:19.621Z,4.80
2022-10-10T06:01:22.719Z,4.60
2022-10-10T06:06:27.501Z,4.90
2022-10-10T06:11:30.615Z,4.90
2022-10-10T06:16:33.772Z,5.20
2022-10-10T06:21:38.331Z,5.50
2022-10-10T06:26:41.378Z,5.50
2022-10-10T06:31:44.431Z,5.60
2022-10-10T06:36:52.060Z,5.80
2022-10-10T06:41:55.110Z,6.20
2022-10-10T06:46:58.171Z,6.60
2022-10-10T06:52:02.734Z,7.00
2022-10-10T06:57:06.167Z,7.40
2022-10-10T07:02:12.734Z,7.70
2022-10-10T07:07:17.133Z,8.50
2022-10-10T07:12:20.349Z,10.40
2022-10-10T07:17:23.347Z,12.20
2022-10-10T07:22:27.712Z,13.60
2022-10-10T07:27:30.676Z,14.20
2022-10-10T07:32:34.105Z,14.20
2022-10-10T07:37:39.240Z,14.50
2022-10-10T07:42:42.594Z,14.40
2022-10-10T07:47:45.632Z,13.10
2022-10-10T07:52:50.120Z,12.50
2022-10-10T07:57:53.695Z,12.20
2022-10-10T08:02:56.899Z,11.90
2022-10-10T08:08:01.535Z,12.30
2022-10-10T08:13:05.063Z,13.80
2022-10-10T08:18:08.187Z,14.90
2022-10-10T08:23:12.856Z,16.80
2022-10-10T08:28:16.577Z,17.00
2022-10-10T08:33:20.278Z,17.40
2022-10-10T08:38:24.712Z,17.70
2022-10-10T08:43:33.678Z,18.20
2022-10-10T10:27:26.713Z,15.10
2022-10-10T10:32:46.798Z,15.60
2022-10-10T10:38:06.097Z,15.40
2022-10-10T10:43:38.202Z,15.40
2022-10-10T10:48:45.465Z,16.00
2022-10-10T10:53:59.870Z,17.30
2022-10-10T11:00:16.628Z,17.70
2022-10-10T11:05:31.119Z,16.80
2022-10-10T11:10:50.608Z,16.70
2022-10-10T11:16:06.634Z,17.20
2022-10-10T11:59:06.225Z,19.10
2022-10-10T12:04:09.706Z,19.90
2022-10-10T12:09:18.341Z,20.50
2022-10-10T12:14:25.724Z,21.20
2022-10-10T12:19:29.615Z,21.40
2022-10-10T12:24:34.649Z,21.30
2022-10-10T12:29:50.109Z,21.10
2022-10-10T12:35:00.214Z,21.00
2022-10-10T12:40:22.139Z,21.40
2022-10-10T12:46:11.454Z,21.00
2022-10-10T12:51:22.945Z,20.80
2022-10-10T12:56:38.775Z,20.80
2022-10-10T13:01:45.281Z,20.90
2022-10-10T13:06:53.741Z,20.80
2022-10-10T13:11:59.874Z,20.50
2022-10-10T13:17:03.195Z,20.50
2022-10-10T13:22:08.701Z,19.90
2022-10-10T13:27:17.437Z,20.00
2022-10-10T13:32:24.116Z,20.40
2022-10-10T13:37:29.691Z,20.40
2022-10-10T13:42:35.058Z,20.40
2022-10-10T13:47:48.719Z,19.70
2022-10-10T13:53:43.306Z,19.70
2022-10-10T13:58:50.410Z,19.10
2022-10-10T14:03:56.927Z,17.70
2022-10-10T14:09:12.565Z,17.30
2022-10-10T14:14:21.420Z,17.10
2022-10-10T14:19:24.983Z,16.80
2022-10-10T14:24:29.936Z,16.70
2022-10-10T14:29:33.132Z,16.90
2022-10-10T14:34:36.269Z,17.20
2022-10-10T14:39:40.691Z,17.30
2022-10-10T14:44:44.138Z,17.30
2022-10-10T14:49:48.075Z,17.10
2022-10-10T14:54:52.501Z,16.90
2022-10-10T14:59:55.668Z,16.70
2022-10-10T15:04:58.896Z,16.50
2022-10-10T15:10:32.556Z,16.40
2022-10-10T15:15:27.878Z,16.10
2022-10-10T15:20:31.617Z,16.10
2022-10-10T15:25:36.158Z,15.90
2022-10-10T15:30:42.905Z,15.70
2022-10-10T15:36:07.862Z,15.70
2022-10-10T15:41:11.134Z,15.50
2022-10-10T15:46:14.261Z,15.20
2022-10-10T15:51:17.751Z,15.00
2022-10-10T15:56:22.467Z,14.70
2022-10-10T16:01:26.007Z,14.40
2022-10-10T16:06:29.545Z,14.10
2022-10-10T16:11:36.643Z,13.80
2022-10-10T16:16:39.945Z,13.70
2022-10-10T16:21:43.278Z,13.60
2022-10-10T16:49:31.407Z,12.60
2022-10-10T16:54:35.894Z,12.30
2022-10-10T16:59:39.119Z,12.10
2022-10-10T17:04:43.929Z,11.90
2022-10-10T17:09:47.119Z,11.80
2022-10-10T17:14:50.201Z,11.50
2022-10-10T17:19:55.310Z,11.20
2022-10-10T17:24:58.524Z,11.10
2022-10-10T17:30:01.879Z,11.00
2022-10-10T17:35:07.645Z,11.00
2022-10-10T17:40:11.278Z,11.00
2022-10-10T17:45:14.467Z,10.90
2022-10-10T17:52:59.159Z,11.00
2022-10-10T17:58:02.912Z,10.80
2022-10-10T18:03:08.878Z,10.70
2022-10-10T18:08:13.722Z,10.60
2022-10-10T18:13:17.124Z,10.50
2022-10-10T18:18:20.706Z,10.30
2022-10-10T18:23:28.055Z,10.10
2022-10-10T18:28:32.905Z,9.90
2022-10-10T18:33:36.514Z,9.90
2022-10-10T18:38:41.025Z,9.80
2022-10-10T18:43:44.917Z,9.60
2022-10-10T18:48:52.987Z,9.40
2022-10-10T18:54:02.114Z,9.30
2022-10-10T18:59:08.244Z,9.20
2022-10-10T19:04:13.873Z,9.10
2022-10-10T20:32:17.666Z,10.60
2022-10-10T20:37:20.732Z,10.70
2022-10-10T20:42:24.142Z,10.80
2022-10-10T20:47:28.780Z,11.10
2022-10-10T20:52:32.195Z,11.60
2022-10-10T20:57:35.301Z,12.10
2022-10-10T21:02:39.830Z,12.70
2022-10-10T21:07:42.938Z,12.80
2022-10-10T21:12:46.455Z,12.80
2022-10-10T21:17:51.186Z,12.70
2022-10-10T21:22:55.709Z,12.90
2022-10-10T21:27:58.733Z,13.00
2022-10-10T21:33:03.773Z,13.00
2022-10-10T21:38:07.198Z,13.20
2022-10-10T21:43:11.022Z,13.20
2022-10-10T21:48:15.496Z,13.30
2022-10-10T21:53:18.458Z,13.30
2022-10-10T21:58:21.932Z,13.30
2022-10-10T22:03:26.328Z,13.20
2022-10-10T22:08:50.302Z,12.80
2022-10-10T22:13:53.436Z,12.70
2022-10-10T22:18:58.855Z,12.60
2022-10-10T22:24:04.749Z,12.50
2022-10-10T22:29:08.653Z,12.50
2022-10-10T22:34:13.786Z,12.50
2022-10-10T22:39:16.928Z,12.30
2022-10-10T22:44:20.964Z,12.10
2022-10-10T22:49:25.512Z,12.00
2022-10-10T22:54:28.759Z,12.00
2022-10-10T22:59:31.921Z,11.80
2022-10-10T23:04:36.370Z,11.70
2022-10-10T23:09:39.688Z,11.50
2022-10-10T23:14:42.729Z,11.40
2022-10-10T23:19:47.250Z,11.00
2022-10-10T23:24:50.236Z,11.20
2022-10-10T23:29:53.366Z,11.20
2022-10-10T23:34:58.014Z,10.80
